Forest City, Washington
Current Conditions -  °F | °C
As of 12:35 AM on Friday 19 Dec 2014 (Local Time) from KPWT Reporting Station
Overcast Overcast  
Wind Chill: 44°   Ceiling: 600
Heat Index: 46°   Visibility: 10mi
Dew Point: 46°   Wind: 6mph
Humidity: 100%   Direction: 190°S
Pressure: 29.78"   Gusts: NA
Location:  47.5378°N, 122.589°W
Report Text: KPWT 190835Z AUTO 19005KT 10SM BKN006 BKN030 OVC037 08/08 A2978 RMK AO1 P0001
Loading
Personal Weather Stations






























Interactive Weather Map New forecast layout! Learn more

10-Day Weather Forecast

Advertisements
Track Severe Weather on mobile